LPE2515 KMIA-SPJC
Flight info
| Callsign | LPE2515 |
|---|---|
| Flight time | 4h 59m |
| Altitude | 31000 |
| Route | N0471F310 GWAVA2 URSUS UL780 LEPEG/N0472F330 UL780 DALUD/N0469F350 UL780 TRU UV1 ATATU ATATU4 |
| Aircraft | B763/H-SDE3FGHIM3RWXYZ/LB1 |
Departure
| Time | 2026-04-26 22:16 |
|---|---|
| Airport | Miami International Airport (KMIA) |
Arrival
| Time | 2026-04-27 03:16 |
|---|---|
| Airport | Jorge Chávez International Airport (SPJC) |
| Time | Latitude | Longitude | Altitude | Speed | Heading |
|---|---|---|---|---|---|
| 2026-04-26 21:50 | 25.79110 | -80.27290 | 16 ft | 0 kts | 262° |
| 2026-04-26 21:52 | 25.79110 | -80.27287 | 16 ft | 0 kts | 262° |
| 2026-04-26 22:00 | 25.79112 | -80.27275 | 16 ft | 2 kts | 261° |
| 2026-04-26 22:01 | 25.79114 | -80.27258 | 16 ft | 1 kts | 263° |
| 2026-04-26 22:01 | 25.79115 | -80.27248 | 16 ft | 2 kts | 257° |
| 2026-04-26 22:01 | 25.79121 | -80.27232 | 16 ft | 2 kts | 229° |
| 2026-04-26 22:01 | 25.79133 | -80.27222 | 16 ft | 2 kts | 202° |
| 2026-04-26 22:02 | 25.79147 | -80.27217 | 16 ft | 1 kts | 184° |
| 2026-04-26 22:02 | 25.79153 | -80.27217 | 16 ft | 1 kts | 177° |
| 2026-04-26 22:02 | 25.79155 | -80.27217 | 16 ft | 0 kts | 178° |
| 2026-04-26 22:06 | 25.79148 | -80.27217 | 16 ft | 3 kts | 178° |
| 2026-04-26 22:06 | 25.79099 | -80.27216 | 16 ft | 9 kts | 179° |
| 2026-04-26 22:07 | 25.79014 | -80.27213 | 16 ft | 14 kts | 177° |
| 2026-04-26 22:07 | 25.78935 | -80.27244 | 16 ft | 11 kts | 246° |
| 2026-04-26 22:07 | 25.78924 | -80.27343 | 16 ft | 14 kts | 266° |
| 2026-04-26 22:07 | 25.78922 | -80.27405 | 16 ft | 4 kts | 268° |
| 2026-04-26 22:08 | 25.78922 | -80.27409 | 16 ft | 0 kts | 268° |
| 2026-04-26 22:10 | 25.78921 | -80.27420 | 16 ft | 3 kts | 259° |
| 2026-04-26 22:10 | 25.78915 | -80.27468 | 16 ft | 8 kts | 263° |
| 2026-04-26 22:10 | 25.78901 | -80.27553 | 16 ft | 13 kts | 258° |
| 2026-04-26 22:11 | 25.78881 | -80.27669 | 16 ft | 17 kts | 263° |
| 2026-04-26 22:11 | 25.78867 | -80.27812 | 16 ft | 20 kts | 257° |
| 2026-04-26 22:11 | 25.78884 | -80.27965 | 16 ft | 20 kts | 298° |
| 2026-04-26 22:11 | 25.78956 | -80.28106 | 16 ft | 21 kts | 300° |
| 2026-04-26 22:12 | 25.79033 | -80.28258 | 16 ft | 23 kts | 299° |
| 2026-04-26 22:12 | 25.79117 | -80.28414 | 16 ft | 24 kts | 308° |
| 2026-04-26 22:12 | 25.79211 | -80.28574 | 16 ft | 24 kts | 301° |
| 2026-04-26 22:12 | 25.79293 | -80.28737 | 16 ft | 24 kts | 300° |
| 2026-04-26 22:13 | 25.79376 | -80.28896 | 16 ft | 23 kts | 299° |
| 2026-04-26 22:13 | 25.79457 | -80.29057 | 16 ft | 23 kts | 298° |
| 2026-04-26 22:13 | 25.79536 | -80.29212 | 16 ft | 23 kts | 300° |
| 2026-04-26 22:13 | 25.79616 | -80.29369 | 16 ft | 23 kts | 299° |
| 2026-04-26 22:14 | 25.79697 | -80.29529 | 16 ft | 24 kts | 299° |
| 2026-04-26 22:14 | 25.79783 | -80.29696 | 16 ft | 25 kts | 299° |
| 2026-04-26 22:14 | 25.79868 | -80.29862 | 16 ft | 24 kts | 299° |
| 2026-04-26 22:14 | 25.79948 | -80.30018 | 16 ft | 21 kts | 300° |
| 2026-04-26 22:15 | 25.80017 | -80.30120 | 16 ft | 13 kts | 330° |
| 2026-04-26 22:15 | 25.80075 | -80.30109 | 16 ft | 6 kts | 72° |
| 2026-04-26 22:15 | 25.80076 | -80.30022 | 16 ft | 19 kts | 88° |
| 2026-04-26 22:15 | 25.80088 | -80.29709 | 16 ft | 67 kts | 88° |
| 2026-04-26 22:16 | 25.80118 | -80.28980 | 16 ft | 121 kts | 88° |
| 2026-04-26 22:16 | 25.80164 | -80.27861 | 16 ft | 168 kts | 88° |
| 2026-04-26 22:16 | 25.80240 | -80.26465 | 279 ft | 190 kts | 90° |
| 2026-04-26 22:16 | 25.80251 | -80.24985 | 867 ft | 194 kts | 105° |
| 2026-04-26 22:17 | 25.79690 | -80.23648 | 1339 ft | 198 kts | 136° |
| 2026-04-26 22:17 | 25.78462 | -80.22786 | 1468 ft | 220 kts | 156° |
| 2026-04-26 22:17 | 25.77051 | -80.21888 | 1649 ft | 248 kts | 147° |
| 2026-04-26 22:17 | 25.75626 | -80.20747 | 2205 ft | 258 kts | 144° |
| 2026-04-26 22:18 | 25.74106 | -80.19617 | 2723 ft | 268 kts | 160° |
| 2026-04-26 22:18 | 25.72273 | -80.19242 | 3348 ft | 272 kts | 180° |
| 2026-04-26 22:18 | 25.70376 | -80.19161 | 4065 ft | 275 kts | 178° |
| 2026-04-26 22:18 | 25.68448 | -80.19066 | 4714 ft | 281 kts | 180° |
| 2026-04-26 22:19 | 25.66515 | -80.19190 | 5417 ft | 282 kts | 189° |
| 2026-04-26 22:19 | 25.64524 | -80.19457 | 6067 ft | 288 kts | 188° |
| 2026-04-26 22:19 | 25.62511 | -80.19549 | 6719 ft | 294 kts | 171° |
| 2026-04-26 22:19 | 25.60594 | -80.18766 | 7407 ft | 297 kts | 151° |
| 2026-04-26 22:20 | 25.58801 | -80.17622 | 8044 ft | 302 kts | 151° |
| 2026-04-26 22:20 | 25.57576 | -80.16846 | 8464 ft | 305 kts | 151° |
| 2026-04-26 22:20 | 25.55131 | -80.15263 | 9323 ft | 309 kts | 151° |
| 2026-04-26 22:20 | 25.53267 | -80.14043 | 9938 ft | 313 kts | 151° |
| 2026-04-26 22:21 | 25.51388 | -80.12811 | 10345 ft | 326 kts | 151° |
| 2026-04-26 22:21 | 25.49345 | -80.11469 | 10367 ft | 353 kts | 150° |
| 2026-04-26 22:21 | 25.47143 | -80.10021 | 10420 ft | 380 kts | 150° |
| 2026-04-26 22:21 | 25.44788 | -80.08471 | 10610 ft | 401 kts | 150° |
| 2026-04-26 22:22 | 25.42402 | -80.06899 | 11459 ft | 402 kts | 150° |
| 2026-04-26 22:22 | 25.39983 | -80.05328 | 12084 ft | 409 kts | 153° |
| 2026-04-26 22:22 | 25.37305 | -80.04150 | 12735 ft | 412 kts | 168° |
| 2026-04-26 22:22 | 25.34494 | -80.03768 | 13395 ft | 413 kts | 182° |
| 2026-04-26 22:23 | 25.31607 | -80.03879 | 14125 ft | 414 kts | 181° |
| 2026-04-26 22:23 | 25.28781 | -80.03662 | 15183 ft | 407 kts | 176° |
| 2026-04-26 22:23 | 25.25925 | -80.03321 | 15672 ft | 414 kts | 174° |
| 2026-04-26 22:23 | 25.23097 | -80.02908 | 16466 ft | 412 kts | 174° |
| 2026-04-26 22:24 | 25.20239 | -80.02456 | 17047 ft | 417 kts | 173° |
| 2026-04-26 22:24 | 25.17372 | -80.01982 | 17624 ft | 421 kts | 173° |
| 2026-04-26 22:24 | 25.14433 | -80.01484 | 18254 ft | 423 kts | 173° |
| 2026-04-26 22:24 | 25.11528 | -80.00987 | 18822 ft | 427 kts | 173° |
| 2026-04-26 22:25 | 25.08578 | -80.00479 | 19369 ft | 431 kts | 173° |
| 2026-04-26 22:25 | 25.05616 | -79.99969 | 19978 ft | 433 kts | 173° |
| 2026-04-26 22:25 | 25.02638 | -79.99454 | 20508 ft | 436 kts | 173° |
| 2026-04-26 22:25 | 24.99624 | -79.98934 | 21055 ft | 439 kts | 173° |
| 2026-04-26 22:26 | 24.96556 | -79.98404 | 21574 ft | 443 kts | 173° |
| 2026-04-26 22:26 | 24.93505 | -79.97877 | 22090 ft | 446 kts | 173° |
| 2026-04-26 22:26 | 24.90443 | -79.97349 | 22556 ft | 450 kts | 173° |
| 2026-04-26 22:26 | 24.87332 | -79.96814 | 22965 ft | 456 kts | 173° |
| 2026-04-26 22:27 | 24.84139 | -79.96265 | 22974 ft | 471 kts | 173° |
| 2026-04-26 22:27 | 24.80837 | -79.95695 | 23443 ft | 476 kts | 173° |
| 2026-04-26 22:27 | 24.77583 | -79.95135 | 23866 ft | 481 kts | 173° |
| 2026-04-26 22:27 | 24.74239 | -79.94559 | 24395 ft | 483 kts | 173° |
| 2026-04-26 22:28 | 24.70935 | -79.93991 | 24830 ft | 487 kts | 173° |
| 2026-04-26 22:28 | 24.67552 | -79.93411 | 25314 ft | 490 kts | 173° |
| 2026-04-26 22:28 | 24.64171 | -79.92829 | 25728 ft | 495 kts | 173° |
| 2026-04-26 22:28 | 24.60762 | -79.92245 | 26185 ft | 498 kts | 173° |
| 2026-04-26 22:29 | 24.57322 | -79.91654 | 26620 ft | 501 kts | 173° |
| 2026-04-26 22:29 | 24.53835 | -79.91056 | 27101 ft | 504 kts | 173° |
| 2026-04-26 22:29 | 24.50348 | -79.90459 | 27463 ft | 508 kts | 173° |
| 2026-04-26 22:29 | 24.46864 | -79.89861 | 27903 ft | 510 kts | 173° |
| 2026-04-26 22:30 | 24.43374 | -79.89263 | 28507 ft | 508 kts | 173° |
| 2026-04-26 22:30 | 24.39879 | -79.88665 | 28979 ft | 508 kts | 173° |
| 2026-04-26 22:30 | 24.36392 | -79.88068 | 29516 ft | 507 kts | 173° |
| 2026-04-26 22:30 | 24.32914 | -79.87474 | 30115 ft | 504 kts | 173° |
| 2026-04-26 22:31 | 24.29459 | -79.86883 | 30592 ft | 504 kts | 174° |
| 2026-04-26 22:31 | 24.25963 | -79.86286 | 31119 ft | 502 kts | 174° |
| 2026-04-26 22:31 | 24.22952 | -79.85772 | 31550 ft | 500 kts | 174° |
| 2026-04-26 22:31 | 24.19507 | -79.85184 | 31915 ft | 501 kts | 174° |
| 2026-04-26 22:32 | 24.16077 | -79.84600 | 32360 ft | 500 kts | 174° |
| 2026-04-26 22:32 | 24.12604 | -79.84008 | 32782 ft | 499 kts | 174° |
| 2026-04-26 22:32 | 24.09188 | -79.83426 | 32927 ft | 497 kts | 175° |
| 2026-04-26 22:32 | 24.05791 | -79.82848 | 32919 ft | 494 kts | 175° |
| 2026-04-26 22:33 | 23.95574 | -79.81112 | 32925 ft | 495 kts | 175° |
| 2026-04-26 22:34 | 23.88738 | -79.79952 | 32930 ft | 497 kts | 175° |
| 2026-04-26 22:34 | 23.81927 | -79.78797 | 32921 ft | 494 kts | 175° |
| 2026-04-26 22:35 | 23.75102 | -79.77641 | 32923 ft | 495 kts | 175° |
| 2026-04-26 22:35 | 23.68295 | -79.76489 | 32925 ft | 495 kts | 175° |
| 2026-04-26 22:36 | 23.61517 | -79.75343 | 32923 ft | 495 kts | 175° |
| 2026-04-26 22:36 | 23.54687 | -79.74190 | 32922 ft | 494 kts | 175° |
| 2026-04-26 22:37 | 23.47914 | -79.73047 | 32923 ft | 494 kts | 175° |
| 2026-04-26 22:37 | 23.41088 | -79.71897 | 32926 ft | 494 kts | 175° |
| 2026-04-26 22:38 | 23.34300 | -79.70753 | 32925 ft | 494 kts | 175° |
| 2026-04-26 22:38 | 23.27482 | -79.69607 | 32928 ft | 494 kts | 175° |
| 2026-04-26 22:39 | 23.20701 | -79.68468 | 32929 ft | 493 kts | 175° |
| 2026-04-26 22:39 | 23.13894 | -79.67325 | 32926 ft | 492 kts | 175° |
| 2026-04-26 22:40 | 23.07083 | -79.66183 | 32926 ft | 494 kts | 175° |
| 2026-04-26 22:40 | 23.00301 | -79.65048 | 32930 ft | 494 kts | 175° |
| 2026-04-26 22:41 | 22.93496 | -79.63908 | 32931 ft | 492 kts | 175° |
| 2026-04-26 22:41 | 22.86732 | -79.62778 | 32927 ft | 492 kts | 175° |
| 2026-04-26 22:42 | 22.79959 | -79.61647 | 32928 ft | 492 kts | 175° |
| 2026-04-26 22:42 | 22.73171 | -79.60515 | 32921 ft | 492 kts | 175° |
| 2026-04-26 22:43 | 22.66377 | -79.59383 | 32917 ft | 492 kts | 175° |
| 2026-04-26 22:43 | 22.59615 | -79.58257 | 32935 ft | 492 kts | 175° |
| 2026-04-26 22:44 | 22.52806 | -79.57124 | 32935 ft | 491 kts | 176° |
| 2026-04-26 22:44 | 22.46065 | -79.56004 | 32923 ft | 491 kts | 176° |
| 2026-04-26 22:45 | 22.39279 | -79.54878 | 32936 ft | 491 kts | 176° |
| 2026-04-26 22:45 | 22.32546 | -79.53761 | 32944 ft | 490 kts | 176° |
| 2026-04-26 22:46 | 22.25773 | -79.52640 | 32946 ft | 489 kts | 176° |
| 2026-04-26 22:46 | 22.19051 | -79.51527 | 32946 ft | 491 kts | 176° |
| 2026-04-26 22:47 | 22.12295 | -79.50410 | 32940 ft | 492 kts | 176° |
| 2026-04-26 22:47 | 22.05499 | -79.49288 | 32934 ft | 491 kts | 176° |
| 2026-04-26 22:48 | 21.98781 | -79.48178 | 32942 ft | 488 kts | 176° |
| 2026-04-26 22:48 | 21.92019 | -79.47064 | 32935 ft | 489 kts | 176° |
| 2026-04-26 22:49 | 21.85313 | -79.45960 | 32935 ft | 488 kts | 176° |
| 2026-04-26 22:49 | 21.78590 | -79.44854 | 32933 ft | 488 kts | 176° |
| 2026-04-26 22:50 | 21.71864 | -79.43748 | 32932 ft | 488 kts | 176° |
| 2026-04-26 22:50 | 21.65152 | -79.42646 | 32925 ft | 488 kts | 176° |
| 2026-04-26 22:51 | 21.58431 | -79.41543 | 32919 ft | 487 kts | 177° |
| 2026-04-26 22:51 | 21.51714 | -79.40442 | 32921 ft | 485 kts | 177° |
| 2026-04-26 22:52 | 21.45021 | -79.39346 | 32921 ft | 485 kts | 176° |
| 2026-04-26 22:52 | 21.38386 | -79.38260 | 32922 ft | 484 kts | 176° |
| 2026-04-26 22:53 | 21.31704 | -79.37168 | 32920 ft | 484 kts | 177° |
| 2026-04-26 22:53 | 21.25031 | -79.36079 | 32923 ft | 484 kts | 177° |
| 2026-04-26 22:54 | 21.18390 | -79.34995 | 32919 ft | 483 kts | 177° |
| 2026-04-26 22:54 | 21.11723 | -79.33907 | 32917 ft | 482 kts | 178° |
| 2026-04-26 22:55 | 21.05075 | -79.32825 | 32917 ft | 482 kts | 178° |
| 2026-04-26 22:55 | 20.98459 | -79.31748 | 32920 ft | 481 kts | 178° |
| 2026-04-26 22:56 | 20.91851 | -79.30674 | 32922 ft | 480 kts | 178° |
| 2026-04-26 22:56 | 20.85199 | -79.29594 | 32923 ft | 482 kts | 178° |
| 2026-04-26 22:57 | 20.78579 | -79.28519 | 32921 ft | 480 kts | 177° |
| 2026-04-26 22:57 | 20.71962 | -79.27447 | 32925 ft | 481 kts | 177° |
| 2026-04-26 22:58 | 20.65359 | -79.26377 | 32922 ft | 480 kts | 177° |
| 2026-04-26 22:58 | 20.58746 | -79.25307 | 32922 ft | 478 kts | 177° |
| 2026-04-26 22:59 | 20.52144 | -79.24239 | 32924 ft | 479 kts | 177° |
| 2026-04-26 22:59 | 20.45551 | -79.23174 | 32926 ft | 479 kts | 177° |
| 2026-04-26 23:00 | 20.38940 | -79.22106 | 32925 ft | 479 kts | 177° |
| 2026-04-26 23:00 | 20.32350 | -79.21043 | 32921 ft | 479 kts | 177° |
| 2026-04-26 23:01 | 20.25750 | -79.19980 | 32925 ft | 478 kts | 177° |
| 2026-04-26 23:01 | 20.19161 | -79.18919 | 32928 ft | 478 kts | 177° |
| 2026-04-26 23:02 | 20.12592 | -79.17862 | 32923 ft | 476 kts | 177° |
| 2026-04-26 23:02 | 20.06031 | -79.16808 | 32927 ft | 476 kts | 177° |
| 2026-04-26 23:03 | 19.99486 | -79.15960 | 32927 ft | 471 kts | 185° |
| 2026-04-26 23:03 | 19.92934 | -79.16112 | 32919 ft | 471 kts | 187° |
| 2026-04-26 23:04 | 19.86351 | -79.16319 | 32909 ft | 470 kts | 187° |
| 2026-04-26 23:04 | 19.79801 | -79.16541 | 32902 ft | 469 kts | 187° |
| 2026-04-26 23:05 | 19.73238 | -79.16769 | 32905 ft | 470 kts | 187° |
| 2026-04-26 23:05 | 19.66696 | -79.16995 | 32905 ft | 469 kts | 187° |
| 2026-04-26 23:06 | 19.60193 | -79.17222 | 32904 ft | 469 kts | 187° |
| 2026-04-26 23:06 | 19.53613 | -79.17451 | 32905 ft | 470 kts | 187° |
| 2026-04-26 23:07 | 19.47081 | -79.17678 | 32903 ft | 470 kts | 187° |
| 2026-04-26 23:07 | 19.40517 | -79.17906 | 32901 ft | 469 kts | 187° |
| 2026-04-26 23:08 | 19.33971 | -79.18134 | 32902 ft | 471 kts | 187° |
| 2026-04-26 23:08 | 19.27408 | -79.18362 | 32906 ft | 472 kts | 187° |
| 2026-04-26 23:09 | 19.20844 | -79.18588 | 32903 ft | 471 kts | 187° |
| 2026-04-26 23:09 | 19.14270 | -79.18816 | 32899 ft | 470 kts | 187° |
| 2026-04-26 23:10 | 19.07754 | -79.19041 | 32904 ft | 470 kts | 187° |
| 2026-04-26 23:10 | 19.01179 | -79.19269 | 32902 ft | 470 kts | 186° |
| 2026-04-26 23:11 | 18.94643 | -79.19495 | 32900 ft | 471 kts | 186° |
| 2026-04-26 23:11 | 18.88096 | -79.19721 | 32900 ft | 469 kts | 186° |
| 2026-04-26 23:12 | 18.81553 | -79.19946 | 32905 ft | 469 kts | 186° |
| 2026-04-26 23:12 | 18.75007 | -79.20172 | 32908 ft | 469 kts | 186° |
| 2026-04-26 23:13 | 18.68502 | -79.20396 | 32912 ft | 468 kts | 186° |
| 2026-04-26 23:13 | 18.61960 | -79.20622 | 32917 ft | 467 kts | 186° |
| 2026-04-26 23:14 | 18.55481 | -79.20844 | 32920 ft | 467 kts | 186° |
| 2026-04-26 23:14 | 18.48961 | -79.21068 | 32923 ft | 464 kts | 186° |
| 2026-04-26 23:15 | 18.42503 | -79.21291 | 32925 ft | 465 kts | 186° |
| 2026-04-26 23:15 | 18.36051 | -79.21512 | 32922 ft | 464 kts | 186° |
| 2026-04-26 23:16 | 18.29565 | -79.21734 | 32921 ft | 464 kts | 186° |
| 2026-04-26 23:16 | 18.23135 | -79.21954 | 32921 ft | 463 kts | 186° |
| 2026-04-26 23:17 | 18.16694 | -79.22175 | 32919 ft | 462 kts | 186° |
| 2026-04-26 23:17 | 18.10250 | -79.22395 | 32918 ft | 463 kts | 186° |
| 2026-04-26 23:18 | 18.03785 | -79.22617 | 32915 ft | 460 kts | 186° |
| 2026-04-26 23:18 | 17.97415 | -79.22834 | 32917 ft | 459 kts | 186° |
| 2026-04-26 23:19 | 17.90999 | -79.23053 | 32916 ft | 458 kts | 186° |
| 2026-04-26 23:19 | 17.84613 | -79.23271 | 32915 ft | 460 kts | 186° |
| 2026-04-26 23:20 | 17.78212 | -79.23489 | 32907 ft | 459 kts | 186° |
| 2026-04-26 23:20 | 17.71814 | -79.23708 | 32903 ft | 458 kts | 186° |
| 2026-04-26 23:21 | 17.65443 | -79.23925 | 32903 ft | 460 kts | 186° |
| 2026-04-26 23:21 | 17.59027 | -79.24143 | 32903 ft | 460 kts | 186° |
| 2026-04-26 23:22 | 17.52641 | -79.24359 | 32902 ft | 458 kts | 186° |
| 2026-04-26 23:22 | 17.46261 | -79.24576 | 32901 ft | 458 kts | 186° |
| 2026-04-26 23:23 | 17.39871 | -79.24793 | 32903 ft | 459 kts | 186° |
| 2026-04-26 23:23 | 17.33484 | -79.25010 | 32902 ft | 458 kts | 186° |
| 2026-04-26 23:24 | 17.27081 | -79.25227 | 32901 ft | 457 kts | 186° |
| 2026-04-26 23:24 | 17.20730 | -79.25442 | 32901 ft | 457 kts | 186° |
| 2026-04-26 23:25 | 17.14351 | -79.25658 | 32901 ft | 457 kts | 186° |
| 2026-04-26 23:25 | 17.07967 | -79.25874 | 32902 ft | 458 kts | 186° |
| 2026-04-26 23:26 | 17.01605 | -79.26089 | 32901 ft | 457 kts | 186° |
| 2026-04-26 23:26 | 16.95239 | -79.26304 | 32899 ft | 457 kts | 186° |
| 2026-04-26 23:27 | 16.88865 | -79.26520 | 32901 ft | 457 kts | 186° |
| 2026-04-26 23:27 | 16.82508 | -79.26733 | 32902 ft | 457 kts | 186° |
| 2026-04-26 23:28 | 16.76113 | -79.26949 | 32901 ft | 457 kts | 186° |
| 2026-04-26 23:28 | 16.69744 | -79.27164 | 32903 ft | 456 kts | 186° |
| 2026-04-26 23:29 | 16.63426 | -79.27377 | 32905 ft | 456 kts | 186° |
| 2026-04-26 23:29 | 16.57042 | -79.27592 | 32902 ft | 457 kts | 186° |
| 2026-04-26 23:30 | 16.50689 | -79.27805 | 32900 ft | 456 kts | 185° |
| 2026-04-26 23:30 | 16.44339 | -79.28018 | 32903 ft | 456 kts | 185° |
| 2026-04-26 23:31 | 16.37950 | -79.28233 | 32900 ft | 457 kts | 186° |
| 2026-04-26 23:31 | 16.31612 | -79.28446 | 32901 ft | 457 kts | 185° |
| 2026-04-26 23:32 | 16.25203 | -79.28661 | 32900 ft | 457 kts | 185° |
| 2026-04-26 23:32 | 16.18841 | -79.28874 | 32902 ft | 457 kts | 185° |
| 2026-04-26 23:33 | 16.12493 | -79.29086 | 32899 ft | 456 kts | 185° |
| 2026-04-26 23:33 | 16.06162 | -79.29298 | 32897 ft | 455 kts | 185° |
| 2026-04-26 23:34 | 15.99787 | -79.29512 | 32910 ft | 456 kts | 185° |
| 2026-04-26 23:34 | 15.93454 | -79.29723 | 32912 ft | 456 kts | 185° |
| 2026-04-26 23:35 | 15.87100 | -79.29936 | 32917 ft | 455 kts | 185° |
| 2026-04-26 23:35 | 15.80713 | -79.30148 | 32916 ft | 456 kts | 185° |
| 2026-04-26 23:36 | 15.74359 | -79.30360 | 32908 ft | 456 kts | 185° |
| 2026-04-26 23:36 | 15.68015 | -79.30572 | 32903 ft | 455 kts | 185° |
| 2026-04-26 23:37 | 15.61659 | -79.30784 | 32902 ft | 454 kts | 185° |
| 2026-04-26 23:37 | 15.55348 | -79.30994 | 32903 ft | 453 kts | 185° |
| 2026-04-26 23:38 | 15.49034 | -79.31204 | 32902 ft | 453 kts | 185° |
| 2026-04-26 23:38 | 15.42724 | -79.31415 | 32901 ft | 453 kts | 185° |
| 2026-04-26 23:39 | 15.36408 | -79.31624 | 32901 ft | 453 kts | 185° |
| 2026-04-26 23:39 | 15.30092 | -79.31834 | 32902 ft | 453 kts | 185° |
| 2026-04-26 23:40 | 15.23769 | -79.32044 | 32900 ft | 453 kts | 185° |
| 2026-04-26 23:40 | 15.17459 | -79.32253 | 32897 ft | 452 kts | 185° |
| 2026-04-26 23:41 | 15.11184 | -79.32461 | 32900 ft | 452 kts | 185° |
| 2026-04-26 23:41 | 15.04872 | -79.32671 | 32900 ft | 452 kts | 185° |
| 2026-04-26 23:42 | 14.98592 | -79.32886 | 32898 ft | 451 kts | 186° |
| 2026-04-26 23:42 | 14.89141 | -79.33258 | 32903 ft | 451 kts | 185° |
| 2026-04-26 23:43 | 14.82865 | -79.33504 | 32904 ft | 452 kts | 185° |
| 2026-04-26 23:43 | 14.76547 | -79.33752 | 32903 ft | 451 kts | 185° |
| 2026-04-26 23:44 | 14.70272 | -79.33997 | 32904 ft | 451 kts | 185° |
| 2026-04-26 23:44 | 14.64014 | -79.34242 | 32904 ft | 451 kts | 185° |
| 2026-04-26 23:45 | 14.57710 | -79.34488 | 32901 ft | 452 kts | 185° |
| 2026-04-26 23:45 | 14.51388 | -79.34735 | 32899 ft | 452 kts | 185° |
| 2026-04-26 23:46 | 14.45113 | -79.34980 | 32899 ft | 452 kts | 185° |
| 2026-04-26 23:46 | 14.38790 | -79.35227 | 32898 ft | 452 kts | 185° |
| 2026-04-26 23:47 | 14.32524 | -79.35471 | 32899 ft | 453 kts | 185° |
| 2026-04-26 23:47 | 14.26192 | -79.35719 | 32896 ft | 452 kts | 185° |
| 2026-04-26 23:48 | 14.19885 | -79.35964 | 32896 ft | 450 kts | 185° |
| 2026-04-26 23:48 | 14.13645 | -79.36207 | 32890 ft | 451 kts | 185° |
| 2026-04-26 23:49 | 14.07344 | -79.36453 | 32881 ft | 451 kts | 185° |
| 2026-04-26 23:49 | 14.01058 | -79.36697 | 32880 ft | 450 kts | 185° |
| 2026-04-26 23:50 | 13.94768 | -79.36942 | 32879 ft | 452 kts | 185° |
| 2026-04-26 23:50 | 13.88466 | -79.37186 | 32881 ft | 451 kts | 185° |
| 2026-04-26 23:51 | 13.82221 | -79.37429 | 32884 ft | 450 kts | 185° |
| 2026-04-26 23:51 | 13.75921 | -79.37673 | 32893 ft | 450 kts | 185° |
| 2026-04-26 23:52 | 13.69647 | -79.37917 | 32905 ft | 451 kts | 185° |
| 2026-04-26 23:52 | 13.63383 | -79.38159 | 32904 ft | 450 kts | 185° |
| 2026-04-26 23:53 | 13.57084 | -79.38403 | 32903 ft | 449 kts | 185° |
| 2026-04-26 23:53 | 13.50815 | -79.38647 | 32902 ft | 450 kts | 185° |
| 2026-04-26 23:54 | 13.44555 | -79.38889 | 32900 ft | 450 kts | 185° |
| 2026-04-26 23:54 | 13.38269 | -79.39132 | 32901 ft | 450 kts | 185° |
| 2026-04-26 23:55 | 13.32022 | -79.39374 | 32900 ft | 450 kts | 184° |
| 2026-04-26 23:55 | 13.25731 | -79.39616 | 32899 ft | 449 kts | 184° |
| 2026-04-26 23:56 | 13.19504 | -79.39857 | 32900 ft | 448 kts | 185° |
| 2026-04-26 23:56 | 13.13252 | -79.40099 | 32903 ft | 448 kts | 184° |
| 2026-04-26 23:57 | 13.07016 | -79.40339 | 32898 ft | 448 kts | 184° |
| 2026-04-26 23:57 | 13.00733 | -79.40582 | 32900 ft | 449 kts | 184° |
| 2026-04-26 23:58 | 12.94486 | -79.40823 | 32899 ft | 448 kts | 184° |
| 2026-04-26 23:58 | 12.88235 | -79.41063 | 32902 ft | 448 kts | 184° |
| 2026-04-26 23:59 | 12.81997 | -79.41303 | 32900 ft | 450 kts | 184° |
| 2026-04-26 23:59 | 12.75725 | -79.41545 | 32894 ft | 449 kts | 184° |
| 2026-04-27 00:00 | 12.69497 | -79.41784 | 32888 ft | 447 kts | 184° |
| 2026-04-27 00:00 | 12.63251 | -79.42025 | 32887 ft | 448 kts | 184° |
| 2026-04-27 00:01 | 12.57018 | -79.42265 | 32883 ft | 449 kts | 184° |
| 2026-04-27 00:01 | 12.50725 | -79.42506 | 32882 ft | 449 kts | 184° |
| 2026-04-27 00:02 | 12.44480 | -79.42746 | 32882 ft | 449 kts | 184° |
| 2026-04-27 00:02 | 12.38210 | -79.42986 | 32890 ft | 449 kts | 184° |
| 2026-04-27 00:03 | 12.31977 | -79.43225 | 32894 ft | 448 kts | 184° |
| 2026-04-27 00:03 | 12.25710 | -79.43465 | 32893 ft | 449 kts | 184° |
| 2026-04-27 00:04 | 12.19440 | -79.43707 | 32893 ft | 449 kts | 184° |
| 2026-04-27 00:04 | 12.13211 | -79.43945 | 32892 ft | 449 kts | 184° |
| 2026-04-27 00:05 | 12.06933 | -79.44186 | 32892 ft | 450 kts | 184° |
| 2026-04-27 00:05 | 12.00688 | -79.44424 | 32890 ft | 449 kts | 184° |
| 2026-04-27 00:06 | 11.94407 | -79.44665 | 32893 ft | 449 kts | 184° |
| 2026-04-27 00:06 | 11.88132 | -79.44905 | 32888 ft | 450 kts | 184° |
| 2026-04-27 00:07 | 11.81882 | -79.45144 | 32882 ft | 451 kts | 184° |
| 2026-04-27 00:07 | 11.75565 | -79.45385 | 32883 ft | 451 kts | 184° |
| 2026-04-27 00:08 | 11.69295 | -79.45624 | 32881 ft | 450 kts | 184° |
| 2026-04-27 00:08 | 11.63028 | -79.45863 | 32885 ft | 451 kts | 184° |
| 2026-04-27 00:09 | 11.56699 | -79.46105 | 32885 ft | 453 kts | 184° |
| 2026-04-27 00:09 | 11.50401 | -79.46345 | 32891 ft | 453 kts | 184° |
| 2026-04-27 00:10 | 11.44066 | -79.46587 | 32889 ft | 453 kts | 184° |
| 2026-04-27 00:10 | 11.37769 | -79.46826 | 32880 ft | 453 kts | 184° |
| 2026-04-27 00:11 | 11.31446 | -79.47067 | 32867 ft | 452 kts | 184° |
| 2026-04-27 00:11 | 11.25125 | -79.47308 | 32864 ft | 453 kts | 184° |
| 2026-04-27 00:12 | 11.18844 | -79.47547 | 32862 ft | 452 kts | 184° |
| 2026-04-27 00:12 | 11.12536 | -79.47787 | 32864 ft | 453 kts | 184° |
| 2026-04-27 00:13 | 11.06209 | -79.48027 | 32862 ft | 455 kts | 184° |
| 2026-04-27 00:13 | 10.99831 | -79.48270 | 32865 ft | 455 kts | 184° |
| 2026-04-27 00:14 | 10.93519 | -79.48509 | 32871 ft | 454 kts | 184° |
| 2026-04-27 00:14 | 10.87160 | -79.48750 | 32875 ft | 454 kts | 184° |
| 2026-04-27 00:15 | 10.80805 | -79.48992 | 32873 ft | 454 kts | 183° |
| 2026-04-27 00:15 | 10.74516 | -79.49231 | 32874 ft | 453 kts | 183° |
| 2026-04-27 00:16 | 10.68184 | -79.49470 | 32881 ft | 453 kts | 183° |
| 2026-04-27 00:16 | 10.61858 | -79.49711 | 32880 ft | 453 kts | 183° |
| 2026-04-27 00:17 | 10.55571 | -79.49949 | 32880 ft | 453 kts | 183° |
| 2026-04-27 00:17 | 10.49246 | -79.50179 | 32879 ft | 452 kts | 183° |
| 2026-04-27 00:18 | 10.42958 | -79.50403 | 32884 ft | 453 kts | 183° |
| 2026-04-27 00:18 | 10.36620 | -79.50628 | 32884 ft | 453 kts | 183° |
| 2026-04-27 00:19 | 10.30288 | -79.50852 | 32882 ft | 451 kts | 182° |
| 2026-04-27 00:19 | 10.24006 | -79.51075 | 32881 ft | 451 kts | 182° |
| 2026-04-27 00:20 | 10.17703 | -79.51299 | 32882 ft | 452 kts | 182° |
| 2026-04-27 00:20 | 10.11425 | -79.51521 | 32880 ft | 452 kts | 182° |
| 2026-04-27 00:21 | 10.05115 | -79.51744 | 32880 ft | 452 kts | 182° |
| 2026-04-27 00:21 | 9.98803 | -79.51968 | 32880 ft | 452 kts | 182° |
| 2026-04-27 00:22 | 9.92483 | -79.52191 | 32880 ft | 452 kts | 182° |
| 2026-04-27 00:22 | 9.86175 | -79.52414 | 32886 ft | 452 kts | 182° |
| 2026-04-27 00:23 | 9.79857 | -79.52638 | 32884 ft | 453 kts | 182° |
| 2026-04-27 00:23 | 9.73532 | -79.52861 | 32885 ft | 454 kts | 182° |
| 2026-04-27 00:24 | 9.67237 | -79.53084 | 32888 ft | 453 kts | 182° |
| 2026-04-27 00:24 | 9.60904 | -79.53307 | 32894 ft | 453 kts | 182° |
| 2026-04-27 00:25 | 9.54592 | -79.53530 | 32901 ft | 455 kts | 182° |
| 2026-04-27 00:25 | 9.48225 | -79.53754 | 32904 ft | 454 kts | 182° |
| 2026-04-27 00:26 | 9.41911 | -79.53977 | 32903 ft | 455 kts | 183° |
| 2026-04-27 00:26 | 9.35535 | -79.54202 | 32906 ft | 456 kts | 183° |
| 2026-04-27 00:27 | 9.29212 | -79.54425 | 32900 ft | 455 kts | 183° |
| 2026-04-27 00:27 | 9.22827 | -79.54650 | 32898 ft | 456 kts | 183° |
| 2026-04-27 00:28 | 9.16492 | -79.54873 | 32890 ft | 457 kts | 183° |
| 2026-04-27 00:28 | 9.10110 | -79.55098 | 32884 ft | 456 kts | 183° |
| 2026-04-27 00:29 | 9.03753 | -79.55321 | 32881 ft | 458 kts | 183° |
| 2026-04-27 00:29 | 8.97377 | -79.55547 | 32876 ft | 458 kts | 183° |
| 2026-04-27 00:30 | 8.90978 | -79.55772 | 32877 ft | 458 kts | 183° |
| 2026-04-27 00:30 | 8.84572 | -79.55997 | 32878 ft | 457 kts | 183° |
| 2026-04-27 00:31 | 8.78211 | -79.56218 | 32875 ft | 457 kts | 182° |
| 2026-04-27 00:31 | 8.71853 | -79.56406 | 32872 ft | 457 kts | 182° |
| 2026-04-27 00:32 | 8.65463 | -79.56596 | 32869 ft | 457 kts | 182° |
| 2026-04-27 00:32 | 8.59111 | -79.56786 | 32873 ft | 458 kts | 182° |
| 2026-04-27 00:33 | 8.52699 | -79.56976 | 32878 ft | 458 kts | 182° |
| 2026-04-27 00:33 | 8.46330 | -79.57166 | 32874 ft | 457 kts | 182° |
| 2026-04-27 00:34 | 8.39960 | -79.57355 | 32869 ft | 458 kts | 182° |
| 2026-04-27 00:34 | 8.33541 | -79.57545 | 32869 ft | 458 kts | 182° |
| 2026-04-27 00:35 | 8.27172 | -79.57734 | 32866 ft | 458 kts | 182° |
| 2026-04-27 00:35 | 8.20799 | -79.57922 | 32867 ft | 458 kts | 182° |
| 2026-04-27 00:36 | 8.14380 | -79.58113 | 32864 ft | 458 kts | 182° |
| 2026-04-27 00:36 | 8.08031 | -79.58302 | 32863 ft | 457 kts | 182° |
| 2026-04-27 00:37 | 8.01615 | -79.58491 | 32861 ft | 458 kts | 182° |
| 2026-04-27 00:37 | 7.95243 | -79.58680 | 32866 ft | 458 kts | 182° |
| 2026-04-27 00:38 | 7.88855 | -79.58869 | 32871 ft | 459 kts | 182° |
| 2026-04-27 00:38 | 7.82410 | -79.59060 | 32873 ft | 459 kts | 182° |
| 2026-04-27 00:39 | 7.76019 | -79.59249 | 32873 ft | 461 kts | 182° |
| 2026-04-27 00:39 | 7.69565 | -79.59440 | 32870 ft | 461 kts | 182° |
| 2026-04-27 00:40 | 7.63139 | -79.59631 | 32870 ft | 460 kts | 182° |
| 2026-04-27 00:40 | 7.56759 | -79.59819 | 32876 ft | 460 kts | 182° |
| 2026-04-27 00:41 | 7.50318 | -79.60009 | 32878 ft | 461 kts | 182° |
| 2026-04-27 00:41 | 7.43868 | -79.60200 | 32874 ft | 462 kts | 182° |
| 2026-04-27 00:42 | 7.37456 | -79.60390 | 32877 ft | 464 kts | 182° |
| 2026-04-27 00:42 | 7.30982 | -79.60581 | 32877 ft | 464 kts | 182° |
| 2026-04-27 00:43 | 7.24506 | -79.60768 | 32883 ft | 464 kts | 182° |
| 2026-04-27 00:43 | 7.18042 | -79.60951 | 32884 ft | 464 kts | 182° |
| 2026-04-27 00:44 | 7.11580 | -79.61134 | 32881 ft | 463 kts | 182° |
| 2026-04-27 00:44 | 7.05101 | -79.61318 | 32880 ft | 464 kts | 182° |
| 2026-04-27 00:45 | 6.98630 | -79.61502 | 32880 ft | 466 kts | 182° |
| 2026-04-27 00:45 | 6.92122 | -79.61687 | 32880 ft | 466 kts | 182° |
| 2026-04-27 00:46 | 6.85601 | -79.61871 | 32883 ft | 466 kts | 182° |
| 2026-04-27 00:46 | 6.79127 | -79.62054 | 32880 ft | 466 kts | 182° |
| 2026-04-27 00:47 | 6.72631 | -79.62239 | 32883 ft | 465 kts | 182° |
| 2026-04-27 00:47 | 6.66139 | -79.62422 | 32886 ft | 464 kts | 182° |
| 2026-04-27 00:48 | 6.59649 | -79.62606 | 32883 ft | 465 kts | 182° |
| 2026-04-27 00:48 | 6.53184 | -79.62789 | 32883 ft | 466 kts | 182° |
| 2026-04-27 00:49 | 6.46666 | -79.62974 | 32878 ft | 466 kts | 182° |
| 2026-04-27 00:49 | 6.40155 | -79.63158 | 32880 ft | 467 kts | 182° |
| 2026-04-27 00:50 | 6.30380 | -79.63435 | 32881 ft | 467 kts | 182° |
| 2026-04-27 00:51 | 6.23869 | -79.63618 | 32873 ft | 466 kts | 182° |
| 2026-04-27 00:51 | 6.17374 | -79.63802 | 32862 ft | 465 kts | 182° |
| 2026-04-27 00:52 | 6.10862 | -79.63985 | 32862 ft | 465 kts | 182° |
| 2026-04-27 00:52 | 6.04399 | -79.64168 | 32861 ft | 466 kts | 182° |
| 2026-04-27 00:53 | 5.97887 | -79.64352 | 32864 ft | 467 kts | 182° |
| 2026-04-27 00:53 | 5.91370 | -79.64536 | 32863 ft | 467 kts | 182° |
| 2026-04-27 00:54 | 5.84851 | -79.64721 | 32869 ft | 468 kts | 182° |
| 2026-04-27 00:54 | 5.78318 | -79.64905 | 32874 ft | 467 kts | 182° |
| 2026-04-27 00:55 | 5.71831 | -79.65088 | 32878 ft | 464 kts | 182° |
| 2026-04-27 00:55 | 5.65352 | -79.65270 | 32883 ft | 465 kts | 182° |
| 2026-04-27 00:56 | 5.58878 | -79.65453 | 32885 ft | 465 kts | 182° |
| 2026-04-27 00:56 | 5.52385 | -79.65636 | 32888 ft | 464 kts | 181° |
| 2026-04-27 00:57 | 5.45932 | -79.65818 | 32884 ft | 465 kts | 181° |
| 2026-04-27 00:57 | 5.39414 | -79.66002 | 32885 ft | 466 kts | 181° |
| 2026-04-27 00:58 | 5.32929 | -79.66185 | 32884 ft | 465 kts | 181° |
| 2026-04-27 00:58 | 5.26435 | -79.66367 | 32882 ft | 464 kts | 181° |
| 2026-04-27 00:59 | 5.19986 | -79.66550 | 32882 ft | 465 kts | 181° |
| 2026-04-27 00:59 | 5.13477 | -79.66785 | 32889 ft | 466 kts | 182° |
| 2026-04-27 01:00 | 5.07003 | -79.67077 | 32883 ft | 465 kts | 182° |
| 2026-04-27 01:00 | 5.00488 | -79.67368 | 32882 ft | 466 kts | 182° |
| 2026-04-27 01:01 | 4.93982 | -79.67658 | 32884 ft | 466 kts | 182° |
| 2026-04-27 01:01 | 4.87504 | -79.67947 | 32886 ft | 466 kts | 182° |
| 2026-04-27 01:02 | 4.81020 | -79.68237 | 32884 ft | 466 kts | 182° |
| 2026-04-27 01:02 | 4.74517 | -79.68527 | 32885 ft | 465 kts | 182° |
| 2026-04-27 01:03 | 4.68032 | -79.68817 | 32885 ft | 467 kts | 182° |
| 2026-04-27 01:03 | 4.61492 | -79.69109 | 32883 ft | 467 kts | 182° |
| 2026-04-27 01:04 | 4.54970 | -79.69400 | 32884 ft | 469 kts | 181° |
| 2026-04-27 01:04 | 4.48452 | -79.69690 | 32882 ft | 467 kts | 182° |
| 2026-04-27 01:05 | 4.41966 | -79.69978 | 32882 ft | 465 kts | 182° |
| 2026-04-27 01:05 | 4.35438 | -79.70269 | 32882 ft | 468 kts | 183° |
| 2026-04-27 01:06 | 4.28898 | -79.70561 | 32883 ft | 472 kts | 184° |
| 2026-04-27 01:06 | 4.22306 | -79.70857 | 32885 ft | 475 kts | 183° |
| 2026-04-27 01:07 | 4.15611 | -79.71156 | 32886 ft | 480 kts | 183° |
| 2026-04-27 01:07 | 4.08932 | -79.71452 | 32884 ft | 480 kts | 183° |
| 2026-04-27 01:08 | 4.02261 | -79.71749 | 32885 ft | 475 kts | 183° |
| 2026-04-27 01:08 | 3.95635 | -79.72044 | 32886 ft | 476 kts | 184° |
| 2026-04-27 01:09 | 3.89031 | -79.72339 | 32891 ft | 478 kts | 184° |
| 2026-04-27 01:09 | 3.82355 | -79.72637 | 32892 ft | 477 kts | 183° |
| 2026-04-27 01:10 | 3.75718 | -79.72932 | 32888 ft | 478 kts | 183° |
| 2026-04-27 01:10 | 3.68999 | -79.73231 | 32895 ft | 481 kts | 183° |
| 2026-04-27 01:11 | 3.62330 | -79.73528 | 32892 ft | 480 kts | 183° |
| 2026-04-27 01:11 | 3.55624 | -79.73827 | 32897 ft | 479 kts | 184° |
| 2026-04-27 01:12 | 3.48943 | -79.74124 | 32903 ft | 479 kts | 184° |
| 2026-04-27 01:12 | 3.42282 | -79.74420 | 32902 ft | 478 kts | 184° |
| 2026-04-27 01:13 | 3.35623 | -79.74716 | 32905 ft | 480 kts | 184° |
| 2026-04-27 01:13 | 3.28886 | -79.75017 | 32907 ft | 481 kts | 184° |
| 2026-04-27 01:14 | 3.22207 | -79.75314 | 32904 ft | 481 kts | 184° |
| 2026-04-27 01:14 | 3.15462 | -79.75613 | 32905 ft | 482 kts | 184° |
| 2026-04-27 01:15 | 3.08768 | -79.75910 | 32904 ft | 481 kts | 184° |
| 2026-04-27 01:15 | 3.02077 | -79.76208 | 32904 ft | 480 kts | 184° |
| 2026-04-27 01:16 | 2.95343 | -79.76508 | 32908 ft | 483 kts | 184° |
| 2026-04-27 01:16 | 2.88616 | -79.76807 | 32905 ft | 483 kts | 184° |
| 2026-04-27 01:17 | 2.81891 | -79.77106 | 32905 ft | 482 kts | 184° |
| 2026-04-27 01:17 | 2.75183 | -79.77404 | 32906 ft | 483 kts | 184° |
| 2026-04-27 01:18 | 2.68418 | -79.77705 | 32904 ft | 483 kts | 184° |
| 2026-04-27 01:18 | 2.61691 | -79.78004 | 32904 ft | 482 kts | 184° |
| 2026-04-27 01:19 | 2.54981 | -79.78302 | 32906 ft | 483 kts | 184° |
| 2026-04-27 01:19 | 2.48250 | -79.78600 | 32907 ft | 483 kts | 184° |
| 2026-04-27 01:20 | 2.41475 | -79.78902 | 32905 ft | 483 kts | 184° |
| 2026-04-27 01:20 | 2.34751 | -79.79200 | 32904 ft | 483 kts | 184° |
| 2026-04-27 01:21 | 2.28041 | -79.79498 | 32900 ft | 484 kts | 184° |
| 2026-04-27 01:21 | 2.21280 | -79.79798 | 32903 ft | 484 kts | 184° |
| 2026-04-27 01:22 | 2.14518 | -79.80099 | 32901 ft | 484 kts | 184° |
| 2026-04-27 01:22 | 2.07811 | -79.80396 | 32908 ft | 484 kts | 184° |
| 2026-04-27 01:23 | 2.01058 | -79.80696 | 32913 ft | 483 kts | 184° |
| 2026-04-27 01:23 | 1.94324 | -79.80995 | 32913 ft | 483 kts | 183° |
| 2026-04-27 01:24 | 1.87575 | -79.81295 | 32904 ft | 484 kts | 184° |
| 2026-04-27 01:24 | 1.80827 | -79.81595 | 32902 ft | 483 kts | 183° |
| 2026-04-27 01:25 | 1.74085 | -79.81893 | 32902 ft | 483 kts | 183° |
| 2026-04-27 01:25 | 1.67333 | -79.82193 | 32903 ft | 484 kts | 183° |
| 2026-04-27 01:26 | 1.60595 | -79.82492 | 32905 ft | 483 kts | 183° |
| 2026-04-27 01:26 | 1.53854 | -79.82791 | 32904 ft | 484 kts | 183° |
| 2026-04-27 01:27 | 1.47087 | -79.83092 | 32904 ft | 484 kts | 183° |
| 2026-04-27 01:27 | 1.40360 | -79.83359 | 32907 ft | 485 kts | 181° |
| 2026-04-27 01:28 | 1.33616 | -79.83412 | 32905 ft | 484 kts | 181° |
| 2026-04-27 01:28 | 1.26821 | -79.83474 | 33046 ft | 487 kts | 181° |
| 2026-04-27 01:28 | 1.23366 | -79.83506 | 33626 ft | 484 kts | 181° |
| 2026-04-27 01:29 | 1.19998 | -79.83537 | 34092 ft | 483 kts | 181° |
| 2026-04-27 01:29 | 1.16652 | -79.83569 | 34552 ft | 482 kts | 181° |
| 2026-04-27 01:29 | 1.13288 | -79.83601 | 34906 ft | 481 kts | 181° |
| 2026-04-27 01:30 | 1.06561 | -79.83665 | 34915 ft | 479 kts | 181° |
| 2026-04-27 01:30 | 0.99885 | -79.83728 | 34908 ft | 479 kts | 181° |
| 2026-04-27 01:31 | 0.93227 | -79.83791 | 34915 ft | 478 kts | 181° |
| 2026-04-27 01:31 | 0.86530 | -79.83854 | 34918 ft | 477 kts | 181° |
| 2026-04-27 01:32 | 0.79890 | -79.83916 | 34928 ft | 478 kts | 181° |
| 2026-04-27 01:32 | 0.73231 | -79.83980 | 34935 ft | 478 kts | 181° |
| 2026-04-27 01:33 | 0.66547 | -79.84042 | 34936 ft | 477 kts | 181° |
| 2026-04-27 01:33 | 0.59899 | -79.84106 | 34946 ft | 478 kts | 181° |
| 2026-04-27 01:34 | 0.53211 | -79.84170 | 34950 ft | 477 kts | 181° |
| 2026-04-27 01:34 | 0.46556 | -79.84232 | 34960 ft | 477 kts | 181° |
| 2026-04-27 01:35 | 0.39937 | -79.84295 | 34954 ft | 477 kts | 181° |
| 2026-04-27 01:35 | 0.33254 | -79.84358 | 34948 ft | 475 kts | 181° |
| 2026-04-27 01:36 | 0.26649 | -79.84421 | 34946 ft | 475 kts | 181° |
| 2026-04-27 01:36 | 0.20001 | -79.84483 | 34947 ft | 476 kts | 181° |
| 2026-04-27 01:37 | 0.13351 | -79.84546 | 34950 ft | 475 kts | 181° |
| 2026-04-27 01:37 | 0.06747 | -79.84609 | 34953 ft | 474 kts | 181° |
| 2026-04-27 01:38 | 0.00099 | -79.84672 | 34960 ft | 477 kts | 181° |
| 2026-04-27 01:38 | -0.06534 | -79.84734 | 34971 ft | 477 kts | 181° |
| 2026-04-27 01:39 | -0.13205 | -79.84797 | 34955 ft | 475 kts | 181° |
| 2026-04-27 01:39 | -0.19796 | -79.84860 | 34963 ft | 474 kts | 181° |
| 2026-04-27 01:40 | -0.26443 | -79.84923 | 34971 ft | 477 kts | 181° |
| 2026-04-27 01:40 | -0.33110 | -79.84986 | 34955 ft | 477 kts | 181° |
| 2026-04-27 01:41 | -0.39778 | -79.85049 | 34977 ft | 478 kts | 181° |
| 2026-04-27 01:41 | -0.46409 | -79.85111 | 34978 ft | 478 kts | 181° |
| 2026-04-27 01:42 | -0.53076 | -79.85175 | 34972 ft | 478 kts | 181° |
| 2026-04-27 01:42 | -0.59762 | -79.85238 | 34966 ft | 477 kts | 181° |
| 2026-04-27 01:43 | -0.66439 | -79.85300 | 34969 ft | 479 kts | 181° |
| 2026-04-27 01:43 | -0.73100 | -79.85364 | 34972 ft | 479 kts | 181° |
| 2026-04-27 01:44 | -0.79806 | -79.85427 | 34963 ft | 478 kts | 181° |
| 2026-04-27 01:44 | -0.86441 | -79.85490 | 34979 ft | 479 kts | 181° |
| 2026-04-27 01:45 | -0.93159 | -79.85554 | 34955 ft | 479 kts | 181° |
| 2026-04-27 01:45 | -0.99811 | -79.85616 | 34956 ft | 479 kts | 181° |
| 2026-04-27 01:46 | -1.06508 | -79.85680 | 34966 ft | 478 kts | 181° |
| 2026-04-27 01:46 | -1.13223 | -79.85744 | 34961 ft | 480 kts | 181° |
| 2026-04-27 01:47 | -1.19885 | -79.85806 | 34952 ft | 479 kts | 181° |
| 2026-04-27 01:47 | -1.26582 | -79.85870 | 34957 ft | 479 kts | 181° |
| 2026-04-27 01:48 | -1.33269 | -79.85933 | 34943 ft | 482 kts | 181° |
| 2026-04-27 01:48 | -1.40019 | -79.85996 | 34935 ft | 481 kts | 181° |
| 2026-04-27 01:49 | -1.46710 | -79.86060 | 34956 ft | 481 kts | 181° |
| 2026-04-27 01:49 | -1.53425 | -79.86124 | 34945 ft | 482 kts | 181° |
| 2026-04-27 01:50 | -1.60158 | -79.86187 | 34927 ft | 481 kts | 181° |
| 2026-04-27 01:50 | -1.66867 | -79.86251 | 34947 ft | 483 kts | 181° |
| 2026-04-27 01:51 | -1.73645 | -79.86316 | 34926 ft | 484 kts | 181° |
| 2026-04-27 01:51 | -1.80359 | -79.86379 | 34930 ft | 481 kts | 181° |
| 2026-04-27 01:52 | -1.87059 | -79.86443 | 34933 ft | 481 kts | 182° |
| 2026-04-27 01:52 | -1.93796 | -79.86507 | 34928 ft | 482 kts | 181° |
| 2026-04-27 01:53 | -2.00517 | -79.86571 | 34935 ft | 483 kts | 182° |
| 2026-04-27 01:53 | -2.07261 | -79.86636 | 34923 ft | 483 kts | 181° |
| 2026-04-27 01:54 | -2.14028 | -79.86493 | 34930 ft | 483 kts | 174° |
| 2026-04-27 01:54 | -2.20680 | -79.85671 | 34908 ft | 482 kts | 174° |
| 2026-04-27 01:55 | -2.27352 | -79.84829 | 34918 ft | 484 kts | 173° |
| 2026-04-27 01:55 | -2.34077 | -79.83971 | 34934 ft | 483 kts | 173° |
| 2026-04-27 01:56 | -2.44076 | -79.82690 | 34919 ft | 483 kts | 173° |
| 2026-04-27 01:56 | -2.50773 | -79.81833 | 34929 ft | 482 kts | 173° |
| 2026-04-27 01:57 | -2.57409 | -79.80982 | 34947 ft | 481 kts | 173° |
| 2026-04-27 01:57 | -2.64078 | -79.80128 | 34952 ft | 483 kts | 173° |
| 2026-04-27 01:58 | -2.70752 | -79.79273 | 34934 ft | 482 kts | 173° |
| 2026-04-27 01:58 | -2.77433 | -79.78416 | 34970 ft | 481 kts | 173° |
| 2026-04-27 01:59 | -2.84070 | -79.77567 | 34969 ft | 481 kts | 173° |
| 2026-04-27 01:59 | -2.90764 | -79.76710 | 34950 ft | 483 kts | 173° |
| 2026-04-27 02:00 | -2.97409 | -79.75859 | 34974 ft | 480 kts | 173° |
| 2026-04-27 02:00 | -3.04067 | -79.75006 | 34998 ft | 481 kts | 173° |
| 2026-04-27 02:01 | -3.10736 | -79.74153 | 35010 ft | 482 kts | 173° |
| 2026-04-27 02:01 | -3.17389 | -79.73301 | 35053 ft | 480 kts | 173° |
| 2026-04-27 02:02 | -3.24064 | -79.72446 | 35040 ft | 481 kts | 173° |
| 2026-04-27 02:02 | -3.30693 | -79.71597 | 35062 ft | 480 kts | 173° |
| 2026-04-27 02:03 | -3.37362 | -79.70743 | 35099 ft | 482 kts | 173° |
| 2026-04-27 02:03 | -3.44052 | -79.69885 | 35177 ft | 481 kts | 173° |
| 2026-04-27 02:04 | -3.50705 | -79.69033 | 35165 ft | 483 kts | 173° |
| 2026-04-27 02:04 | -3.57374 | -79.68179 | 35206 ft | 480 kts | 173° |
| 2026-04-27 02:05 | -3.63998 | -79.67329 | 35185 ft | 479 kts | 173° |
| 2026-04-27 02:05 | -3.70652 | -79.66476 | 35179 ft | 479 kts | 173° |
| 2026-04-27 02:06 | -3.77305 | -79.65624 | 35182 ft | 479 kts | 173° |
| 2026-04-27 02:06 | -3.83934 | -79.64774 | 35190 ft | 480 kts | 173° |
| 2026-04-27 02:07 | -3.90556 | -79.63924 | 35182 ft | 481 kts | 173° |
| 2026-04-27 02:07 | -3.97216 | -79.63070 | 35203 ft | 480 kts | 173° |
| 2026-04-27 02:08 | -4.03869 | -79.62217 | 35211 ft | 479 kts | 173° |
| 2026-04-27 02:08 | -4.10486 | -79.61368 | 35237 ft | 479 kts | 173° |
| 2026-04-27 02:09 | -4.17172 | -79.60510 | 35243 ft | 480 kts | 173° |
| 2026-04-27 02:09 | -4.23803 | -79.59659 | 35257 ft | 480 kts | 173° |
| 2026-04-27 02:10 | -4.30452 | -79.58805 | 35253 ft | 480 kts | 173° |
| 2026-04-27 02:10 | -4.37100 | -79.57951 | 35244 ft | 479 kts | 173° |
| 2026-04-27 02:11 | -4.43697 | -79.57104 | 35227 ft | 479 kts | 173° |
| 2026-04-27 02:11 | -4.50348 | -79.56250 | 35208 ft | 480 kts | 173° |
| 2026-04-27 02:12 | -4.56999 | -79.55418 | 35242 ft | 479 kts | 173° |
| 2026-04-27 02:12 | -4.63597 | -79.54594 | 35297 ft | 479 kts | 173° |
| 2026-04-27 02:13 | -4.70263 | -79.53763 | 35364 ft | 480 kts | 173° |
| 2026-04-27 02:13 | -4.76889 | -79.52936 | 35431 ft | 480 kts | 173° |
| 2026-04-27 02:14 | -4.83536 | -79.52106 | 35453 ft | 479 kts | 173° |
| 2026-04-27 02:14 | -4.90185 | -79.51276 | 35472 ft | 479 kts | 172° |
| 2026-04-27 02:15 | -4.96800 | -79.50449 | 35487 ft | 479 kts | 172° |
| 2026-04-27 02:15 | -5.03434 | -79.49620 | 35492 ft | 479 kts | 172° |
| 2026-04-27 02:16 | -5.10086 | -79.48789 | 35445 ft | 479 kts | 172° |
| 2026-04-27 02:16 | -5.16711 | -79.47961 | 35414 ft | 480 kts | 172° |
| 2026-04-27 02:17 | -5.23379 | -79.47127 | 35383 ft | 479 kts | 172° |
| 2026-04-27 02:17 | -5.29970 | -79.46303 | 35371 ft | 478 kts | 172° |
| 2026-04-27 02:18 | -5.36626 | -79.45470 | 35390 ft | 479 kts | 172° |
| 2026-04-27 02:18 | -5.43235 | -79.44643 | 35400 ft | 480 kts | 172° |
| 2026-04-27 02:19 | -5.49902 | -79.43810 | 35417 ft | 479 kts | 172° |
| 2026-04-27 02:19 | -5.56514 | -79.42982 | 35413 ft | 479 kts | 172° |
| 2026-04-27 02:20 | -5.63101 | -79.41811 | 35409 ft | 479 kts | 161° |
| 2026-04-27 02:20 | -5.69292 | -79.39341 | 35388 ft | 479 kts | 158° |
| 2026-04-27 02:21 | -5.75590 | -79.37055 | 35370 ft | 478 kts | 160° |
| 2026-04-27 02:21 | -5.81878 | -79.34887 | 35357 ft | 478 kts | 160° |
| 2026-04-27 02:22 | -5.88233 | -79.32732 | 35332 ft | 479 kts | 160° |
| 2026-04-27 02:22 | -5.94557 | -79.30598 | 35315 ft | 479 kts | 160° |
| 2026-04-27 02:23 | -6.00905 | -79.28459 | 35302 ft | 478 kts | 160° |
| 2026-04-27 02:23 | -6.07213 | -79.26332 | 35356 ft | 477 kts | 160° |
| 2026-04-27 02:24 | -6.13560 | -79.24194 | 35404 ft | 480 kts | 160° |
| 2026-04-27 02:24 | -6.19881 | -79.22063 | 35447 ft | 478 kts | 160° |
| 2026-04-27 02:25 | -6.26196 | -79.19933 | 35471 ft | 478 kts | 161° |
| 2026-04-27 02:25 | -6.32557 | -79.17789 | 35393 ft | 480 kts | 161° |
| 2026-04-27 02:26 | -6.38891 | -79.15651 | 35345 ft | 479 kts | 161° |
| 2026-04-27 02:26 | -6.45203 | -79.13522 | 35327 ft | 478 kts | 161° |
| 2026-04-27 02:27 | -6.51518 | -79.11390 | 35302 ft | 480 kts | 161° |
| 2026-04-27 02:27 | -6.57904 | -79.09235 | 35325 ft | 480 kts | 161° |
| 2026-04-27 02:28 | -6.64220 | -79.07101 | 35393 ft | 477 kts | 161° |
| 2026-04-27 02:28 | -6.70533 | -79.04969 | 35409 ft | 480 kts | 161° |
| 2026-04-27 02:29 | -6.76867 | -79.02828 | 35434 ft | 479 kts | 161° |
| 2026-04-27 02:29 | -6.83203 | -79.00687 | 35498 ft | 479 kts | 161° |
| 2026-04-27 02:30 | -6.89570 | -78.98534 | 35521 ft | 479 kts | 161° |
| 2026-04-27 02:30 | -6.95861 | -78.96407 | 35579 ft | 476 kts | 161° |
| 2026-04-27 02:31 | -7.02144 | -78.94282 | 35602 ft | 476 kts | 161° |
| 2026-04-27 02:31 | -7.08487 | -78.92136 | 35536 ft | 479 kts | 161° |
| 2026-04-27 02:32 | -7.14837 | -78.89986 | 35502 ft | 478 kts | 161° |
| 2026-04-27 02:32 | -7.21141 | -78.87852 | 35462 ft | 478 kts | 161° |
| 2026-04-27 02:33 | -7.27473 | -78.85708 | 35427 ft | 477 kts | 161° |
| 2026-04-27 02:33 | -7.33774 | -78.83573 | 35415 ft | 477 kts | 161° |
| 2026-04-27 02:34 | -7.40070 | -78.81439 | 35378 ft | 477 kts | 161° |
| 2026-04-27 02:34 | -7.46357 | -78.79308 | 35373 ft | 476 kts | 161° |
| 2026-04-27 02:35 | -7.52668 | -78.77168 | 35417 ft | 476 kts | 161° |
| 2026-04-27 02:35 | -7.58962 | -78.75034 | 35449 ft | 477 kts | 162° |
| 2026-04-27 02:36 | -7.65297 | -78.72884 | 35489 ft | 477 kts | 162° |
| 2026-04-27 02:36 | -7.71583 | -78.70751 | 35513 ft | 476 kts | 162° |
| 2026-04-27 02:37 | -7.77855 | -78.68622 | 35504 ft | 475 kts | 162° |
| 2026-04-27 02:37 | -7.84161 | -78.66480 | 35430 ft | 476 kts | 162° |
| 2026-04-27 02:38 | -7.90414 | -78.64356 | 35454 ft | 475 kts | 162° |
| 2026-04-27 02:38 | -7.96725 | -78.62212 | 35446 ft | 475 kts | 162° |
| 2026-04-27 02:39 | -8.02996 | -78.60080 | 35454 ft | 476 kts | 162° |
| 2026-04-27 02:39 | -8.09305 | -78.57935 | 35466 ft | 476 kts | 162° |
| 2026-04-27 02:40 | -8.15580 | -78.55800 | 35487 ft | 474 kts | 162° |
| 2026-04-27 02:40 | -8.21841 | -78.53670 | 35521 ft | 476 kts | 162° |
| 2026-04-27 02:41 | -8.28157 | -78.51520 | 35526 ft | 475 kts | 162° |
| 2026-04-27 02:41 | -8.34429 | -78.49384 | 35474 ft | 476 kts | 162° |
| 2026-04-27 02:42 | -8.40734 | -78.47237 | 35407 ft | 476 kts | 162° |
| 2026-04-27 02:42 | -8.47033 | -78.45091 | 35343 ft | 477 kts | 162° |
| 2026-04-27 02:43 | -8.53293 | -78.42957 | 35319 ft | 474 kts | 162° |
| 2026-04-27 02:43 | -8.59573 | -78.40816 | 35362 ft | 475 kts | 162° |
| 2026-04-27 02:44 | -8.65836 | -78.38680 | 35383 ft | 475 kts | 162° |
| 2026-04-27 02:44 | -8.72129 | -78.36533 | 35380 ft | 475 kts | 162° |
| 2026-04-27 02:45 | -8.78404 | -78.34390 | 35432 ft | 476 kts | 162° |
| 2026-04-27 02:45 | -8.84714 | -78.32237 | 35406 ft | 477 kts | 162° |
| 2026-04-27 02:46 | -8.90994 | -78.30091 | 35405 ft | 476 kts | 162° |
| 2026-04-27 02:46 | -8.97268 | -78.27947 | 35411 ft | 477 kts | 162° |
| 2026-04-27 02:47 | -9.03554 | -78.25799 | 35380 ft | 477 kts | 162° |
| 2026-04-27 02:47 | -9.09858 | -78.23643 | 35398 ft | 476 kts | 162° |
| 2026-04-27 02:48 | -9.13032 | -78.22557 | 35290 ft | 477 kts | 162° |
| 2026-04-27 02:48 | -9.16172 | -78.21483 | 35363 ft | 474 kts | 162° |
| 2026-04-27 02:48 | -9.22411 | -78.19348 | 35328 ft | 476 kts | 162° |
| 2026-04-27 02:49 | -9.28733 | -78.17184 | 35253 ft | 476 kts | 162° |
| 2026-04-27 02:49 | -9.34996 | -78.15039 | 35240 ft | 476 kts | 162° |
| 2026-04-27 02:50 | -9.41307 | -78.12877 | 35194 ft | 477 kts | 162° |
| 2026-04-27 02:50 | -9.47581 | -78.10727 | 35164 ft | 474 kts | 162° |
| 2026-04-27 02:51 | -9.53823 | -78.08587 | 35127 ft | 473 kts | 162° |
| 2026-04-27 02:51 | -9.60101 | -78.06433 | 35157 ft | 474 kts | 162° |
| 2026-04-27 02:52 | -9.66357 | -78.04287 | 35161 ft | 475 kts | 162° |
| 2026-04-27 02:52 | -9.72644 | -78.02129 | 35165 ft | 475 kts | 162° |
| 2026-04-27 02:53 | -9.78906 | -77.99979 | 35173 ft | 476 kts | 162° |
| 2026-04-27 02:53 | -9.85270 | -77.97793 | 34427 ft | 487 kts | 162° |
| 2026-04-27 02:54 | -9.88491 | -77.96686 | 33801 ft | 488 kts | 162° |
| 2026-04-27 02:54 | -9.91704 | -77.95581 | 33171 ft | 485 kts | 162° |
| 2026-04-27 02:54 | -9.94885 | -77.94488 | 32580 ft | 482 kts | 162° |
| 2026-04-27 02:54 | -9.98056 | -77.93399 | 32044 ft | 480 kts | 162° |
| 2026-04-27 02:55 | -10.01210 | -77.92315 | 31503 ft | 480 kts | 161° |
| 2026-04-27 02:55 | -10.04384 | -77.91224 | 30969 ft | 483 kts | 161° |
| 2026-04-27 02:55 | -10.07579 | -77.90125 | 30422 ft | 488 kts | 160° |
| 2026-04-27 02:55 | -10.10825 | -77.89008 | 29854 ft | 493 kts | 160° |
| 2026-04-27 02:56 | -10.14086 | -77.87885 | 29271 ft | 497 kts | 159° |
| 2026-04-27 02:56 | -10.17401 | -77.86745 | 28668 ft | 498 kts | 159° |
| 2026-04-27 02:56 | -10.20673 | -77.85617 | 28063 ft | 494 kts | 159° |
| 2026-04-27 02:56 | -10.23914 | -77.84499 | 27463 ft | 490 kts | 159° |
| 2026-04-27 02:57 | -10.27114 | -77.83397 | 26877 ft | 485 kts | 159° |
| 2026-04-27 02:57 | -10.30288 | -77.82303 | 26293 ft | 480 kts | 159° |
| 2026-04-27 02:57 | -10.33471 | -77.81205 | 25699 ft | 475 kts | 160° |
| 2026-04-27 02:57 | -10.36577 | -77.80135 | 25126 ft | 469 kts | 160° |
| 2026-04-27 02:58 | -10.39646 | -77.79076 | 24559 ft | 464 kts | 160° |
| 2026-04-27 02:58 | -10.42688 | -77.78027 | 23990 ft | 459 kts | 160° |
| 2026-04-27 02:58 | -10.45694 | -77.76990 | 23428 ft | 454 kts | 160° |
| 2026-04-27 02:58 | -10.48702 | -77.75952 | 22878 ft | 449 kts | 160° |
| 2026-04-27 02:59 | -10.51640 | -77.74938 | 22349 ft | 444 kts | 160° |
| 2026-04-27 02:59 | -10.54537 | -77.73938 | 21825 ft | 439 kts | 160° |
| 2026-04-27 02:59 | -10.57404 | -77.72948 | 21358 ft | 434 kts | 160° |
| 2026-04-27 02:59 | -10.60277 | -77.71956 | 20845 ft | 431 kts | 160° |
| 2026-04-27 03:00 | -10.63092 | -77.70983 | 20337 ft | 427 kts | 160° |
| 2026-04-27 03:00 | -10.65930 | -77.70003 | 19772 ft | 423 kts | 160° |
| 2026-04-27 03:00 | -10.68712 | -77.69041 | 19301 ft | 421 kts | 160° |
| 2026-04-27 03:00 | -10.71470 | -77.68088 | 18823 ft | 418 kts | 160° |
| 2026-04-27 03:01 | -10.74216 | -77.67139 | 18286 ft | 414 kts | 160° |
| 2026-04-27 03:01 | -10.76941 | -77.66196 | 17799 ft | 412 kts | 160° |
| 2026-04-27 03:01 | -10.79633 | -77.65266 | 17364 ft | 410 kts | 160° |
| 2026-04-27 03:01 | -10.82351 | -77.64326 | 16859 ft | 407 kts | 160° |
| 2026-04-27 03:02 | -10.85018 | -77.63404 | 16398 ft | 403 kts | 160° |
| 2026-04-27 03:02 | -10.87663 | -77.62489 | 15794 ft | 400 kts | 160° |
| 2026-04-27 03:02 | -10.90282 | -77.61582 | 15325 ft | 396 kts | 160° |
| 2026-04-27 03:02 | -10.92884 | -77.60681 | 14836 ft | 393 kts | 160° |
| 2026-04-27 03:03 | -10.95483 | -77.59782 | 14306 ft | 390 kts | 160° |
| 2026-04-27 03:03 | -11.00582 | -77.58016 | 13405 ft | 384 kts | 160° |
| 2026-04-27 03:03 | -11.03106 | -77.57142 | 12906 ft | 381 kts | 160° |
| 2026-04-27 03:04 | -11.05602 | -77.56278 | 12433 ft | 378 kts | 160° |
| 2026-04-27 03:04 | -11.08104 | -77.55410 | 11970 ft | 376 kts | 160° |
| 2026-04-27 03:04 | -11.10581 | -77.54552 | 11488 ft | 374 kts | 160° |
| 2026-04-27 03:04 | -11.13026 | -77.53704 | 11152 ft | 366 kts | 160° |
| 2026-04-27 03:05 | -11.15406 | -77.52879 | 11084 ft | 349 kts | 160° |
| 2026-04-27 03:05 | -11.17639 | -77.52106 | 11099 ft | 332 kts | 161° |
| 2026-04-27 03:05 | -11.19796 | -77.51356 | 11106 ft | 317 kts | 161° |
| 2026-04-27 03:05 | -11.21834 | -77.50650 | 11077 ft | 304 kts | 160° |
| 2026-04-27 03:06 | -11.23808 | -77.49965 | 11089 ft | 297 kts | 160° |
| 2026-04-27 03:06 | -11.25733 | -77.49154 | 11089 ft | 300 kts | 154° |
| 2026-04-27 03:06 | -11.27718 | -77.48215 | 10756 ft | 329 kts | 154° |
| 2026-04-27 03:06 | -11.29924 | -77.47180 | 10328 ft | 370 kts | 155° |
| 2026-04-27 03:07 | -11.32377 | -77.46027 | 9817 ft | 402 kts | 155° |
| 2026-04-27 03:07 | -11.34913 | -77.44835 | 9348 ft | 398 kts | 155° |
| 2026-04-27 03:07 | -11.37451 | -77.43641 | 8863 ft | 396 kts | 155° |
| 2026-04-27 03:07 | -11.39935 | -77.42471 | 8523 ft | 393 kts | 155° |
| 2026-04-27 03:08 | -11.42406 | -77.41308 | 8424 ft | 389 kts | 155° |
| 2026-04-27 03:08 | -11.44865 | -77.40149 | 8245 ft | 391 kts | 155° |
| 2026-04-27 03:08 | -11.47365 | -77.38970 | 8131 ft | 392 kts | 155° |
| 2026-04-27 03:08 | -11.49842 | -77.37803 | 7986 ft | 392 kts | 155° |
| 2026-04-27 03:09 | -11.52305 | -77.36642 | 7849 ft | 390 kts | 155° |
| 2026-04-27 03:09 | -11.54793 | -77.35468 | 7807 ft | 389 kts | 155° |
| 2026-04-27 03:09 | -11.57268 | -77.34300 | 7660 ft | 389 kts | 155° |
| 2026-04-27 03:09 | -11.59706 | -77.33150 | 7534 ft | 389 kts | 155° |
| 2026-04-27 03:10 | -11.62175 | -77.31986 | 7421 ft | 388 kts | 155° |
| 2026-04-27 03:10 | -11.64646 | -77.30819 | 7355 ft | 388 kts | 155° |
| 2026-04-27 03:10 | -11.67114 | -77.29654 | 7232 ft | 389 kts | 155° |
| 2026-04-27 03:10 | -11.69557 | -77.28462 | 6777 ft | 388 kts | 150° |
| 2026-04-27 03:11 | -11.71785 | -77.26953 | 6269 ft | 378 kts | 144° |
| 2026-04-27 03:11 | -11.74005 | -77.25550 | 5816 ft | 370 kts | 150° |
| 2026-04-27 03:11 | -11.76242 | -77.24303 | 5339 ft | 363 kts | 151° |
| 2026-04-27 03:11 | -11.78406 | -77.23156 | 4785 ft | 344 kts | 153° |
| 2026-04-27 03:12 | -11.80516 | -77.22072 | 4374 ft | 326 kts | 153° |
| 2026-04-27 03:12 | -11.82515 | -77.21072 | 3983 ft | 311 kts | 153° |
| 2026-04-27 03:12 | -11.84413 | -77.20130 | 3588 ft | 299 kts | 153° |
| 2026-04-27 03:12 | -11.86259 | -77.19222 | 3194 ft | 287 kts | 153° |
| 2026-04-27 03:13 | -11.88036 | -77.18350 | 2821 ft | 277 kts | 153° |
| 2026-04-27 03:13 | -11.89734 | -77.17519 | 2453 ft | 261 kts | 153° |
| 2026-04-27 03:13 | -11.91304 | -77.16754 | 2114 ft | 238 kts | 153° |
| 2026-04-27 03:13 | -11.92732 | -77.16054 | 1853 ft | 216 kts | 153° |
| 2026-04-27 03:14 | -11.94023 | -77.15423 | 1592 ft | 196 kts | 153° |
| 2026-04-27 03:14 | -11.95200 | -77.14848 | 1342 ft | 175 kts | 153° |
| 2026-04-27 03:14 | -11.96235 | -77.14341 | 1104 ft | 158 kts | 153° |
| 2026-04-27 03:14 | -11.97203 | -77.13866 | 885 ft | 150 kts | 154° |
| 2026-04-27 03:15 | -11.98134 | -77.13411 | 709 ft | 150 kts | 154° |
| 2026-04-27 03:15 | -11.99095 | -77.12941 | 518 ft | 152 kts | 155° |
| 2026-04-27 03:15 | -12.00041 | -77.12479 | 315 ft | 151 kts | 155° |
| 2026-04-27 03:15 | -12.00998 | -77.12019 | 135 ft | 149 kts | 155° |
| 2026-04-27 03:16 | -12.01830 | -77.11609 | 127 ft | 105 kts | 154° |
| 2026-04-27 03:16 | -12.02319 | -77.11369 | 127 ft | 67 kts | 154° |
| 2026-04-27 03:16 | -12.02480 | -77.11274 | 127 ft | 17 kts | 124° |
| 2026-04-27 03:16 | -12.02459 | -77.11162 | 127 ft | 16 kts | 59° |
| 2026-04-27 03:17 | -12.02462 | -77.11070 | 127 ft | 13 kts | 120° |
| 2026-04-27 03:17 | -12.02511 | -77.10993 | 127 ft | 12 kts | 121° |
| 2026-04-27 03:17 | -12.02568 | -77.10938 | 127 ft | 10 kts | 151° |
| 2026-04-27 03:17 | -12.02632 | -77.10905 | 127 ft | 8 kts | 136° |
| 2026-04-27 03:18 | -12.02637 | -77.10857 | 127 ft | 6 kts | 68° |
| 2026-04-27 03:18 | -12.02622 | -77.10829 | 127 ft | 0 kts | 64° |
| 2026-04-27 03:22 | -12.01378 | -77.11768 | 127 ft | 0 kts | 64° |
| 2026-04-27 03:23 | -12.01423 | -77.11844 | 128 ft | 0 kts | 64° |
| 2026-04-27 03:23 | -12.01418 | -77.11824 | 127 ft | 0 kts | 64° |
| 2026-04-27 03:23 | -12.01417 | -77.11818 | 128 ft | 0 kts | 64° |
| 2026-04-27 03:23 | -12.01437 | -77.11801 | 128 ft | 0 kts | 64° |
| 2026-04-27 03:24 | -12.03163 | -77.10968 | 128 ft | 0 kts | 64° |
| 2026-04-27 03:37 | -12.01300 | -77.11872 | 126 ft | 0 kts | 64° |
| 2026-04-27 03:40 | -12.01693 | -77.11671 | 126 ft | 0 kts | 64° |
| 2026-04-27 03:40 | -12.01733 | -77.11581 | 126 ft | 0 kts | 64° |
| 2026-04-27 03:40 | -12.01779 | -77.11517 | 126 ft | 0 kts | 64° |